sensor_id;sensor_type;location;lat;lon;timestamp;P1;durP1;ratioP1;P2;durP2;ratioP2
81386;SDS011;70842;50.744;7.114;2024-02-28T00:00:24;37.17;;;22.15;;
81386;SDS011;70842;50.744;7.114;2024-02-28T00:02:50;40.40;;;23.58;;
81386;SDS011;70842;50.744;7.114;2024-02-28T00:05:17;46.40;;;36.88;;
81386;SDS011;70842;50.744;7.114;2024-02-28T00:07:43;42.45;;;25.83;;
81386;SDS011;70842;50.744;7.114;2024-02-28T00:10:10;40.35;;;24.02;;
81386;SDS011;70842;50.744;7.114;2024-02-28T00:12:38;46.80;;;23.83;;
81386;SDS011;70842;50.744;7.114;2024-02-28T00:15:05;42.63;;;32.88;;
81386;SDS011;70842;50.744;7.114;2024-02-28T00:17:39;41.80;;;20.77;;
81386;SDS011;70842;50.744;7.114;2024-02-28T00:20:07;40.42;;;24.65;;
81386;SDS011;70842;50.744;7.114;2024-02-28T00:22:35;41.72;;;24.15;;
81386;SDS011;70842;50.744;7.114;2024-02-28T00:25:03;42.33;;;23.02;;
81386;SDS011;70842;50.744;7.114;2024-02-28T00:27:32;41.38;;;22.70;;
81386;SDS011;70842;50.744;7.114;2024-02-28T00:30:00;45.60;;;26.40;;
81386;SDS011;70842;50.744;7.114;2024-02-28T00:32:26;46.22;;;26.20;;
81386;SDS011;70842;50.744;7.114;2024-02-28T00:34:53;40.50;;;26.13;;
81386;SDS011;70842;50.744;7.114;2024-02-28T00:37:19;45.13;;;24.92;;
81386;SDS011;70842;50.744;7.114;2024-02-28T00:39:45;42.95;;;24.77;;
81386;SDS011;70842;50.744;7.114;2024-02-28T00:42:12;46.03;;;26.48;;
81386;SDS011;70842;50.744;7.114;2024-02-28T00:44:38;40.10;;;23.20;;
81386;SDS011;70842;50.744;7.114;2024-02-28T00:47:09;41.83;;;27.45;;
81386;SDS011;70842;50.744;7.114;2024-02-28T00:49:35;44.67;;;23.13;;
81386;SDS011;70842;50.744;7.114;2024-02-28T00:52:03;43.08;;;23.85;;
81386;SDS011;70842;50.744;7.114;2024-02-28T00:54:30;44.58;;;23.38;;
81386;SDS011;70842;50.744;7.114;2024-02-28T00:56:57;46.97;;;24.10;;
81386;SDS011;70842;50.744;7.114;2024-02-28T00:59:23;47.95;;;26.10;;
81386;SDS011;70842;50.744;7.114;2024-02-28T01:01:49;44.47;;;23.00;;
81386;SDS011;70842;50.744;7.114;2024-02-28T01:04:16;41.15;;;23.23;;
81386;SDS011;70842;50.744;7.114;2024-02-28T01:06:42;42.22;;;25.92;;
81386;SDS011;70842;50.744;7.114;2024-02-28T01:09:09;42.25;;;25.75;;
81386;SDS011;70842;50.744;7.114;2024-02-28T01:11:35;45.75;;;27.10;;
81386;SDS011;70842;50.744;7.114;2024-02-28T01:14:02;39.78;;;22.92;;
81386;SDS011;70842;50.744;7.114;2024-02-28T01:16:28;38.13;;;26.00;;
81386;SDS011;70842;50.744;7.114;2024-02-28T01:18:55;45.58;;;25.23;;
81386;SDS011;70842;50.744;7.114;2024-02-28T01:21:21;44.80;;;28.33;;
81386;SDS011;70842;50.744;7.114;2024-02-28T01:23:48;39.38;;;22.42;;
81386;SDS011;70842;50.744;7.114;2024-02-28T01:26:14;41.05;;;24.98;;
81386;SDS011;70842;50.744;7.114;2024-02-28T01:28:41;45.00;;;25.35;;
81386;SDS011;70842;50.744;7.114;2024-02-28T01:31:09;51.88;;;27.70;;
81386;SDS011;70842;50.744;7.114;2024-02-28T01:33:35;39.35;;;23.83;;
81386;SDS011;70842;50.744;7.114;2024-02-28T01:36:02;46.72;;;25.50;;
81386;SDS011;70842;50.744;7.114;2024-02-28T01:38:28;47.88;;;27.58;;
81386;SDS011;70842;50.744;7.114;2024-02-28T01:40:54;45.97;;;26.83;;
81386;SDS011;70842;50.744;7.114;2024-02-28T01:43:21;49.03;;;27.98;;
81386;SDS011;70842;50.744;7.114;2024-02-28T01:45:47;45.38;;;25.00;;
81386;SDS011;70842;50.744;7.114;2024-02-28T01:48:14;51.17;;;25.30;;
81386;SDS011;70842;50.744;7.114;2024-02-28T01:50:41;46.17;;;28.80;;
81386;SDS011;70842;50.744;7.114;2024-02-28T01:53:08;43.88;;;26.60;;
81386;SDS011;70842;50.744;7.114;2024-02-28T01:55:35;53.35;;;27.63;;
81386;SDS011;70842;50.744;7.114;2024-02-28T01:58:02;47.00;;;25.00;;
81386;SDS011;70842;50.744;7.114;2024-02-28T02:00:34;47.60;;;25.50;;
81386;SDS011;70842;50.744;7.114;2024-02-28T02:03:04;44.33;;;28.23;;
81386;SDS011;70842;50.744;7.114;2024-02-28T02:05:30;53.70;;;25.42;;
81386;SDS011;70842;50.744;7.114;2024-02-28T02:07:57;45.53;;;27.10;;
81386;SDS011;70842;50.744;7.114;2024-02-28T02:10:28;44.20;;;26.33;;
81386;SDS011;70842;50.744;7.114;2024-02-28T02:12:54;45.78;;;26.45;;
81386;SDS011;70842;50.744;7.114;2024-02-28T02:15:21;44.65;;;23.75;;
81386;SDS011;70842;50.744;7.114;2024-02-28T02:17:47;50.97;;;29.52;;
81386;SDS011;70842;50.744;7.114;2024-02-28T02:20:14;47.28;;;25.98;;
81386;SDS011;70842;50.744;7.114;2024-02-28T02:22:41;50.50;;;27.85;;
81386;SDS011;70842;50.744;7.114;2024-02-28T02:25:08;46.28;;;25.55;;
81386;SDS011;70842;50.744;7.114;2024-02-28T02:27:34;45.13;;;27.40;;
81386;SDS011;70842;50.744;7.114;2024-02-28T02:30:01;43.10;;;25.70;;
81386;SDS011;70842;50.744;7.114;2024-02-28T02:32:27;48.17;;;25.83;;
81386;SDS011;70842;50.744;7.114;2024-02-28T02:34:55;43.40;;;28.77;;
81386;SDS011;70842;50.744;7.114;2024-02-28T02:37:22;47.05;;;24.33;;
81386;SDS011;70842;50.744;7.114;2024-02-28T02:39:48;45.38;;;25.25;;
81386;SDS011;70842;50.744;7.114;2024-02-28T02:42:15;45.30;;;24.85;;
81386;SDS011;70842;50.744;7.114;2024-02-28T02:44:41;44.28;;;24.63;;
81386;SDS011;70842;50.744;7.114;2024-02-28T02:47:08;48.88;;;27.92;;
81386;SDS011;70842;50.744;7.114;2024-02-28T02:49:34;46.67;;;25.50;;
81386;SDS011;70842;50.744;7.114;2024-02-28T02:52:02;38.72;;;23.15;;
81386;SDS011;70842;50.744;7.114;2024-02-28T02:54:28;42.53;;;23.67;;
81386;SDS011;70842;50.744;7.114;2024-02-28T02:56:55;50.00;;;29.25;;
81386;SDS011;70842;50.744;7.114;2024-02-28T02:59:21;46.53;;;25.60;;
81386;SDS011;70842;50.744;7.114;2024-02-28T03:01:48;46.15;;;26.38;;
81386;SDS011;70842;50.744;7.114;2024-02-28T03:04:15;48.63;;;25.75;;
81386;SDS011;70842;50.744;7.114;2024-02-28T03:06:42;47.10;;;25.88;;
81386;SDS011;70842;50.744;7.114;2024-02-28T03:09:08;43.22;;;25.88;;
81386;SDS011;70842;50.744;7.114;2024-02-28T03:11:35;40.22;;;25.15;;
81386;SDS011;70842;50.744;7.114;2024-02-28T03:14:01;44.50;;;24.38;;
81386;SDS011;70842;50.744;7.114;2024-02-28T03:16:28;45.05;;;22.40;;
81386;SDS011;70842;50.744;7.114;2024-02-28T03:18:55;39.95;;;24.27;;
81386;SDS011;70842;50.744;7.114;2024-02-28T03:21:22;39.45;;;21.58;;
81386;SDS011;70842;50.744;7.114;2024-02-28T03:23:49;42.67;;;24.30;;
81386;SDS011;70842;50.744;7.114;2024-02-28T03:26:15;40.00;;;22.33;;
81386;SDS011;70842;50.744;7.114;2024-02-28T03:28:42;43.90;;;23.70;;
81386;SDS011;70842;50.744;7.114;2024-02-28T03:31:08;41.60;;;25.13;;
81386;SDS011;70842;50.744;7.114;2024-02-28T03:33:35;45.25;;;24.75;;
81386;SDS011;70842;50.744;7.114;2024-02-28T03:36:02;39.92;;;21.83;;
81386;SDS011;70842;50.744;7.114;2024-02-28T03:38:28;47.63;;;24.48;;
81386;SDS011;70842;50.744;7.114;2024-02-28T03:40:55;41.03;;;22.65;;
81386;SDS011;70842;50.744;7.114;2024-02-28T03:43:21;42.70;;;24.17;;
81386;SDS011;70842;50.744;7.114;2024-02-28T03:45:48;40.85;;;24.70;;
81386;SDS011;70842;50.744;7.114;2024-02-28T03:48:16;41.75;;;23.85;;
81386;SDS011;70842;50.744;7.114;2024-02-28T03:50:43;40.97;;;23.33;;
81386;SDS011;70842;50.744;7.114;2024-02-28T03:53:09;45.20;;;24.55;;
81386;SDS011;70842;50.744;7.114;2024-02-28T03:55:36;45.38;;;24.98;;
81386;SDS011;70842;50.744;7.114;2024-02-28T03:58:04;54.78;;;29.27;;
81386;SDS011;70842;50.744;7.114;2024-02-28T04:00:30;42.80;;;23.27;;
81386;SDS011;70842;50.744;7.114;2024-02-28T04:02:57;42.83;;;25.00;;
81386;SDS011;70842;50.744;7.114;2024-02-28T04:05:23;45.13;;;24.70;;
81386;SDS011;70842;50.744;7.114;2024-02-28T04:07:50;40.80;;;23.52;;
81386;SDS011;70842;50.744;7.114;2024-02-28T04:10:16;39.50;;;21.15;;
81386;SDS011;70842;50.744;7.114;2024-02-28T04:12:43;36.13;;;22.55;;
81386;SDS011;70842;50.744;7.114;2024-02-28T04:15:11;44.08;;;25.23;;
81386;SDS011;70842;50.744;7.114;2024-02-28T04:17:41;39.13;;;24.08;;
81386;SDS011;70842;50.744;7.114;2024-02-28T04:20:08;43.38;;;24.17;;
81386;SDS011;70842;50.744;7.114;2024-02-28T04:22:36;39.45;;;21.38;;
81386;SDS011;70842;50.744;7.114;2024-02-28T04:25:06;36.25;;;21.08;;
81386;SDS011;70842;50.744;7.114;2024-02-28T04:27:34;45.10;;;23.00;;
81386;SDS011;70842;50.744;7.114;2024-02-28T04:30:02;37.10;;;21.60;;
81386;SDS011;70842;50.744;7.114;2024-02-28T04:32:31;37.13;;;22.88;;
81386;SDS011;70842;50.744;7.114;2024-02-28T04:34:58;40.78;;;22.02;;
81386;SDS011;70842;50.744;7.114;2024-02-28T04:37:24;38.88;;;23.13;;
81386;SDS011;70842;50.744;7.114;2024-02-28T04:39:51;39.42;;;18.90;;
81386;SDS011;70842;50.744;7.114;2024-02-28T04:42:17;37.67;;;21.73;;
81386;SDS011;70842;50.744;7.114;2024-02-28T04:44:44;39.15;;;22.67;;
81386;SDS011;70842;50.744;7.114;2024-02-28T04:47:10;37.65;;;22.05;;
81386;SDS011;70842;50.744;7.114;2024-02-28T04:49:37;41.45;;;20.00;;
81386;SDS011;70842;50.744;7.114;2024-02-28T04:52:07;38.60;;;20.65;;
81386;SDS011;70842;50.744;7.114;2024-02-28T04:54:33;41.70;;;21.85;;
81386;SDS011;70842;50.744;7.114;2024-02-28T04:57:00;36.63;;;19.40;;
81386;SDS011;70842;50.744;7.114;2024-02-28T04:59:27;35.83;;;21.33;;
81386;SDS011;70842;50.744;7.114;2024-02-28T05:01:53;38.30;;;22.83;;
81386;SDS011;70842;50.744;7.114;2024-02-28T05:04:20;39.28;;;22.17;;
81386;SDS011;70842;50.744;7.114;2024-02-28T05:06:47;36.85;;;19.98;;
81386;SDS011;70842;50.744;7.114;2024-02-28T05:09:13;37.60;;;21.55;;
81386;SDS011;70842;50.744;7.114;2024-02-28T05:11:40;36.60;;;20.77;;
81386;SDS011;70842;50.744;7.114;2024-02-28T05:14:08;38.58;;;20.92;;
81386;SDS011;70842;50.744;7.114;2024-02-28T05:16:36;41.72;;;21.88;;
81386;SDS011;70842;50.744;7.114;2024-02-28T05:19:03;43.67;;;23.83;;
81386;SDS011;70842;50.744;7.114;2024-02-28T05:21:30;40.08;;;22.70;;
81386;SDS011;70842;50.744;7.114;2024-02-28T05:23:57;39.47;;;21.80;;
81386;SDS011;70842;50.744;7.114;2024-02-28T05:26:24;41.78;;;23.73;;
81386;SDS011;70842;50.744;7.114;2024-02-28T05:28:51;40.50;;;23.42;;
81386;SDS011;70842;50.744;7.114;2024-02-28T05:31:24;37.67;;;20.30;;
81386;SDS011;70842;50.744;7.114;2024-02-28T05:33:52;44.85;;;21.92;;
81386;SDS011;70842;50.744;7.114;2024-02-28T05:36:21;42.90;;;23.08;;
81386;SDS011;70842;50.744;7.114;2024-02-28T05:38:48;44.35;;;23.70;;
81386;SDS011;70842;50.744;7.114;2024-02-28T05:41:16;36.10;;;20.25;;
81386;SDS011;70842;50.744;7.114;2024-02-28T05:43:46;47.60;;;26.60;;
81386;SDS011;70842;50.744;7.114;2024-02-28T05:46:13;39.17;;;23.00;;
81386;SDS011;70842;50.744;7.114;2024-02-28T05:48:41;42.58;;;21.42;;
81386;SDS011;70842;50.744;7.114;2024-02-28T05:51:08;36.85;;;21.10;;
81386;SDS011;70842;50.744;7.114;2024-02-28T05:53:36;43.10;;;22.02;;
81386;SDS011;70842;50.744;7.114;2024-02-28T05:56:02;41.50;;;22.13;;
81386;SDS011;70842;50.744;7.114;2024-02-28T05:58:29;45.97;;;24.58;;
81386;SDS011;70842;50.744;7.114;2024-02-28T06:00:56;44.90;;;25.58;;
81386;SDS011;70842;50.744;7.114;2024-02-28T06:03:26;40.78;;;22.92;;
81386;SDS011;70842;50.744;7.114;2024-02-28T06:05:52;43.38;;;22.42;;
81386;SDS011;70842;50.744;7.114;2024-02-28T06:08:20;44.78;;;21.50;;
81386;SDS011;70842;50.744;7.114;2024-02-28T06:10:47;42.35;;;24.27;;
81386;SDS011;70842;50.744;7.114;2024-02-28T06:13:13;41.70;;;23.75;;
81386;SDS011;70842;50.744;7.114;2024-02-28T06:15:40;40.17;;;21.98;;
81386;SDS011;70842;50.744;7.114;2024-02-28T06:18:07;42.78;;;23.48;;
81386;SDS011;70842;50.744;7.114;2024-02-28T06:20:33;40.00;;;21.70;;
81386;SDS011;70842;50.744;7.114;2024-02-28T06:22:59;43.33;;;23.13;;
81386;SDS011;70842;50.744;7.114;2024-02-28T06:25:35;44.55;;;24.35;;
81386;SDS011;70842;50.744;7.114;2024-02-28T06:28:01;45.03;;;23.67;;
81386;SDS011;70842;50.744;7.114;2024-02-28T06:30:28;42.33;;;21.77;;
81386;SDS011;70842;50.744;7.114;2024-02-28T06:32:58;43.28;;;26.90;;
81386;SDS011;70842;50.744;7.114;2024-02-28T06:37:52;40.63;;;22.08;;
81386;SDS011;70842;50.744;7.114;2024-02-28T06:40:19;38.72;;;20.02;;
81386;SDS011;70842;50.744;7.114;2024-02-28T06:42:46;37.20;;;19.75;;
81386;SDS011;70842;50.744;7.114;2024-02-28T06:45:12;40.28;;;23.38;;
81386;SDS011;70842;50.744;7.114;2024-02-28T06:47:39;39.58;;;21.02;;
81386;SDS011;70842;50.744;7.114;2024-02-28T06:50:06;42.92;;;21.85;;
81386;SDS011;70842;50.744;7.114;2024-02-28T06:52:33;41.72;;;23.40;;
81386;SDS011;70842;50.744;7.114;2024-02-28T06:55:01;47.35;;;26.40;;
81386;SDS011;70842;50.744;7.114;2024-02-28T06:57:29;45.25;;;24.65;;
81386;SDS011;70842;50.744;7.114;2024-02-28T06:59:56;40.65;;;23.60;;
81386;SDS011;70842;50.744;7.114;2024-02-28T07:02:22;40.85;;;23.60;;
81386;SDS011;70842;50.744;7.114;2024-02-28T07:04:48;44.58;;;23.83;;
81386;SDS011;70842;50.744;7.114;2024-02-28T07:07:15;45.17;;;25.90;;
81386;SDS011;70842;50.744;7.114;2024-02-28T07:09:41;41.85;;;23.40;;
81386;SDS011;70842;50.744;7.114;2024-02-28T07:12:08;47.22;;;26.23;;
81386;SDS011;70842;50.744;7.114;2024-02-28T07:14:34;46.33;;;23.58;;
81386;SDS011;70842;50.744;7.114;2024-02-28T07:17:00;41.80;;;23.33;;
81386;SDS011;70842;50.744;7.114;2024-02-28T07:19:27;39.97;;;22.63;;
81386;SDS011;70842;50.744;7.114;2024-02-28T07:21:53;39.47;;;22.65;;
81386;SDS011;70842;50.744;7.114;2024-02-28T07:24:20;43.20;;;25.50;;
81386;SDS011;70842;50.744;7.114;2024-02-28T07:26:46;38.70;;;22.25;;
81386;SDS011;70842;50.744;7.114;2024-02-28T07:29:14;40.33;;;23.33;;
81386;SDS011;70842;50.744;7.114;2024-02-28T07:31:41;38.50;;;23.92;;
81386;SDS011;70842;50.744;7.114;2024-02-28T07:34:07;41.63;;;22.45;;
81386;SDS011;70842;50.744;7.114;2024-02-28T07:36:34;38.75;;;22.58;;
81386;SDS011;70842;50.744;7.114;2024-02-28T07:39:01;42.67;;;21.45;;
81386;SDS011;70842;50.744;7.114;2024-02-28T07:41:27;41.00;;;21.02;;
81386;SDS011;70842;50.744;7.114;2024-02-28T07:43:54;38.75;;;26.20;;
81386;SDS011;70842;50.744;7.114;2024-02-28T07:46:20;40.88;;;21.67;;
81386;SDS011;70842;50.744;7.114;2024-02-28T07:48:46;42.67;;;24.73;;
81386;SDS011;70842;50.744;7.114;2024-02-28T07:51:13;32.90;;;20.90;;
81386;SDS011;70842;50.744;7.114;2024-02-28T07:53:39;38.03;;;22.08;;
81386;SDS011;70842;50.744;7.114;2024-02-28T07:56:06;38.70;;;20.90;;
81386;SDS011;70842;50.744;7.114;2024-02-28T07:58:33;40.50;;;23.00;;
81386;SDS011;70842;50.744;7.114;2024-02-28T08:00:59;36.40;;;21.10;;
81386;SDS011;70842;50.744;7.114;2024-02-28T08:03:26;41.10;;;21.23;;
81386;SDS011;70842;50.744;7.114;2024-02-28T08:05:52;36.90;;;20.92;;
81386;SDS011;70842;50.744;7.114;2024-02-28T08:08:19;37.88;;;22.00;;
81386;SDS011;70842;50.744;7.114;2024-02-28T08:10:45;34.50;;;20.85;;
81386;SDS011;70842;50.744;7.114;2024-02-28T08:13:13;39.88;;;19.92;;
81386;SDS011;70842;50.744;7.114;2024-02-28T08:15:39;40.05;;;19.95;;
81386;SDS011;70842;50.744;7.114;2024-02-28T08:18:05;37.63;;;21.30;;
81386;SDS011;70842;50.744;7.114;2024-02-28T08:20:32;41.63;;;21.67;;
81386;SDS011;70842;50.744;7.114;2024-02-28T08:22:58;40.15;;;20.60;;
81386;SDS011;70842;50.744;7.114;2024-02-28T08:25:26;37.10;;;20.48;;
81386;SDS011;70842;50.744;7.114;2024-02-28T08:27:52;40.35;;;21.13;;
81386;SDS011;70842;50.744;7.114;2024-02-28T08:30:19;37.38;;;20.70;;
81386;SDS011;70842;50.744;7.114;2024-02-28T08:32:45;33.55;;;20.20;;
81386;SDS011;70842;50.744;7.114;2024-02-28T08:35:11;37.25;;;19.65;;
81386;SDS011;70842;50.744;7.114;2024-02-28T08:37:38;38.80;;;21.23;;
81386;SDS011;70842;50.744;7.114;2024-02-28T08:40:06;38.42;;;21.35;;
81386;SDS011;70842;50.744;7.114;2024-02-28T08:42:33;39.17;;;21.15;;
81386;SDS011;70842;50.744;7.114;2024-02-28T08:45:00;41.45;;;22.15;;
81386;SDS011;70842;50.744;7.114;2024-02-28T08:47:26;33.88;;;19.83;;
81386;SDS011;70842;50.744;7.114;2024-02-28T08:49:53;35.90;;;19.55;;
81386;SDS011;70842;50.744;7.114;2024-02-28T08:52:20;34.92;;;18.88;;
81386;SDS011;70842;50.744;7.114;2024-02-28T08:54:47;35.80;;;20.55;;
81386;SDS011;70842;50.744;7.114;2024-02-28T08:57:15;36.75;;;21.42;;
81386;SDS011;70842;50.744;7.114;2024-02-28T08:59:41;34.22;;;20.40;;
81386;SDS011;70842;50.744;7.114;2024-02-28T09:02:08;36.30;;;21.35;;
81386;SDS011;70842;50.744;7.114;2024-02-28T09:04:34;34.33;;;20.85;;
81386;SDS011;70842;50.744;7.114;2024-02-28T09:07:01;34.53;;;20.30;;
81386;SDS011;70842;50.744;7.114;2024-02-28T09:09:27;38.25;;;22.67;;
81386;SDS011;70842;50.744;7.114;2024-02-28T09:12:00;37.22;;;22.63;;
81386;SDS011;70842;50.744;7.114;2024-02-28T09:14:29;32.53;;;18.23;;
81386;SDS011;70842;50.744;7.114;2024-02-28T09:16:55;34.63;;;21.27;;
81386;SDS011;70842;50.744;7.114;2024-02-28T09:19:29;28.20;;;16.20;;
81386;SDS011;70842;50.744;7.114;2024-02-28T09:21:56;32.15;;;19.90;;
81386;SDS011;70842;50.744;7.114;2024-02-28T09:24:24;32.88;;;20.23;;
81386;SDS011;70842;50.744;7.114;2024-02-28T09:26:51;36.55;;;21.92;;
81386;SDS011;70842;50.744;7.114;2024-02-28T09:29:17;36.75;;;23.15;;
81386;SDS011;70842;50.744;7.114;2024-02-28T09:31:44;36.28;;;21.40;;
81386;SDS011;70842;50.744;7.114;2024-02-28T09:34:10;34.80;;;19.88;;
81386;SDS011;70842;50.744;7.114;2024-02-28T09:36:42;30.42;;;18.73;;
81386;SDS011;70842;50.744;7.114;2024-02-28T09:39:15;32.58;;;18.30;;
81386;SDS011;70842;50.744;7.114;2024-02-28T09:41:42;32.53;;;20.75;;
81386;SDS011;70842;50.744;7.114;2024-02-28T09:44:09;32.38;;;18.92;;
81386;SDS011;70842;50.744;7.114;2024-02-28T09:46:37;29.33;;;17.73;;
81386;SDS011;70842;50.744;7.114;2024-02-28T09:49:04;32.33;;;18.80;;
81386;SDS011;70842;50.744;7.114;2024-02-28T09:51:35;34.70;;;19.52;;
81386;SDS011;70842;50.744;7.114;2024-02-28T09:54:04;32.70;;;20.17;;
81386;SDS011;70842;50.744;7.114;2024-02-28T09:56:32;32.60;;;20.25;;
81386;SDS011;70842;50.744;7.114;2024-02-28T09:58:59;29.58;;;18.75;;
81386;SDS011;70842;50.744;7.114;2024-02-28T10:01:29;32.47;;;20.75;;
81386;SDS011;70842;50.744;7.114;2024-02-28T10:03:55;30.42;;;18.70;;
81386;SDS011;70842;50.744;7.114;2024-02-28T10:06:25;32.78;;;20.25;;
81386;SDS011;70842;50.744;7.114;2024-02-28T10:08:51;35.05;;;19.98;;
81386;SDS011;70842;50.744;7.114;2024-02-28T10:11:19;30.67;;;19.63;;
81386;SDS011;70842;50.744;7.114;2024-02-28T10:13:47;32.40;;;17.50;;
81386;SDS011;70842;50.744;7.114;2024-02-28T10:16:14;32.63;;;20.55;;
81386;SDS011;70842;50.744;7.114;2024-02-28T10:18:42;32.42;;;19.77;;
81386;SDS011;70842;50.744;7.114;2024-02-28T10:21:09;28.63;;;19.48;;
81386;SDS011;70842;50.744;7.114;2024-02-28T10:23:38;33.80;;;17.60;;
81386;SDS011;70842;50.744;7.114;2024-02-28T10:26:08;29.90;;;17.80;;
81386;SDS011;70842;50.744;7.114;2024-02-28T10:28:38;32.15;;;19.45;;
81386;SDS011;70842;50.744;7.114;2024-02-28T10:31:06;34.05;;;18.25;;
81386;SDS011;70842;50.744;7.114;2024-02-28T10:33:33;31.23;;;18.40;;
81386;SDS011;70842;50.744;7.114;2024-02-28T10:36:02;32.15;;;20.75;;
81386;SDS011;70842;50.744;7.114;2024-02-28T10:38:30;30.02;;;20.33;;
81386;SDS011;70842;50.744;7.114;2024-02-28T10:41:00;32.58;;;18.83;;
81386;SDS011;70842;50.744;7.114;2024-02-28T10:43:27;27.65;;;16.55;;
81386;SDS011;70842;50.744;7.114;2024-02-28T10:45:58;31.08;;;19.23;;
81386;SDS011;70842;50.744;7.114;2024-02-28T10:48:45;27.42;;;17.30;;
81386;SDS011;70842;50.744;7.114;2024-02-28T10:51:15;29.80;;;16.80;;
81386;SDS011;70842;50.744;7.114;2024-02-28T10:53:42;27.08;;;17.05;;
81386;SDS011;70842;50.744;7.114;2024-02-28T10:56:13;28.55;;;20.50;;
81386;SDS011;70842;50.744;7.114;2024-02-28T10:59:00;31.00;;;17.98;;
81386;SDS011;70842;50.744;7.114;2024-02-28T11:01:27;30.52;;;18.45;;
81386;SDS011;70842;50.744;7.114;2024-02-28T11:03:54;30.80;;;18.10;;
81386;SDS011;70842;50.744;7.114;2024-02-28T11:06:22;28.48;;;18.40;;
81386;SDS011;70842;50.744;7.114;2024-02-28T11:08:49;30.20;;;17.40;;
81386;SDS011;70842;50.744;7.114;2024-02-28T11:13:52;26.70;;;17.52;;
81386;SDS011;70842;50.744;7.114;2024-02-28T11:16:26;28.75;;;17.60;;
81386;SDS011;70842;50.744;7.114;2024-02-28T11:18:57;26.70;;;17.25;;
81386;SDS011;70842;50.744;7.114;2024-02-28T11:21:24;29.15;;;17.10;;
81386;SDS011;70842;50.744;7.114;2024-02-28T11:23:57;26.08;;;17.08;;
81386;SDS011;70842;50.744;7.114;2024-02-28T11:26:26;31.33;;;20.10;;
81386;SDS011;70842;50.744;7.114;2024-02-28T11:28:57;25.58;;;15.75;;
81386;SDS011;70842;50.744;7.114;2024-02-28T11:31:23;27.83;;;17.98;;
81386;SDS011;70842;50.744;7.114;2024-02-28T11:33:50;25.25;;;17.23;;
81386;SDS011;70842;50.744;7.114;2024-02-28T11:36:16;27.00;;;19.15;;
81386;SDS011;70842;50.744;7.114;2024-02-28T11:38:43;25.70;;;16.50;;
81386;SDS011;70842;50.744;7.114;2024-02-28T11:41:10;26.08;;;18.55;;
81386;SDS011;70842;50.744;7.114;2024-02-28T11:43:36;29.13;;;18.25;;
81386;SDS011;70842;50.744;7.114;2024-02-28T11:46:17;30.90;;;17.27;;
81386;SDS011;70842;50.744;7.114;2024-02-28T11:48:44;27.67;;;22.90;;
81386;SDS011;70842;50.744;7.114;2024-02-28T11:51:11;27.75;;;16.95;;
81386;SDS011;70842;50.744;7.114;2024-02-28T11:53:38;27.52;;;17.98;;
81386;SDS011;70842;50.744;7.114;2024-02-28T11:56:04;27.55;;;18.63;;
81386;SDS011;70842;50.744;7.114;2024-02-28T11:58:31;26.83;;;17.65;;
81386;SDS011;70842;50.744;7.114;2024-02-28T12:00:57;25.00;;;16.92;;
81386;SDS011;70842;50.744;7.114;2024-02-28T12:03:24;26.02;;;17.00;;
81386;SDS011;70842;50.744;7.114;2024-02-28T12:05:51;29.60;;;17.05;;
81386;SDS011;70842;50.744;7.114;2024-02-28T12:08:19;27.58;;;15.15;;
81386;SDS011;70842;50.744;7.114;2024-02-28T12:10:46;28.42;;;16.63;;
81386;SDS011;70842;50.744;7.114;2024-02-28T12:13:19;23.05;;;16.33;;
81386;SDS011;70842;50.744;7.114;2024-02-28T12:15:46;23.33;;;14.30;;
81386;SDS011;70842;50.744;7.114;2024-02-28T12:18:15;23.60;;;15.85;;
81386;SDS011;70842;50.744;7.114;2024-02-28T12:20:41;27.08;;;18.27;;
81386;SDS011;70842;50.744;7.114;2024-02-28T12:23:08;25.23;;;17.77;;
81386;SDS011;70842;50.744;7.114;2024-02-28T12:25:35;23.73;;;14.70;;
81386;SDS011;70842;50.744;7.114;2024-02-28T12:28:02;24.60;;;15.20;;
81386;SDS011;70842;50.744;7.114;2024-02-28T12:30:38;24.17;;;16.70;;
81386;SDS011;70842;50.744;7.114;2024-02-28T12:33:06;23.40;;;15.05;;
81386;SDS011;70842;50.744;7.114;2024-02-28T12:35:32;21.08;;;13.43;;
81386;SDS011;70842;50.744;7.114;2024-02-28T12:37:59;23.55;;;15.70;;
81386;SDS011;70842;50.744;7.114;2024-02-28T12:40:25;21.23;;;15.98;;
81386;SDS011;70842;50.744;7.114;2024-02-28T12:42:52;22.38;;;12.82;;
81386;SDS011;70842;50.744;7.114;2024-02-28T12:45:18;24.02;;;15.18;;
81386;SDS011;70842;50.744;7.114;2024-02-28T12:47:45;23.10;;;14.45;;
81386;SDS011;70842;50.744;7.114;2024-02-28T12:50:15;21.77;;;14.07;;
81386;SDS011;70842;50.744;7.114;2024-02-28T12:52:41;23.83;;;15.93;;
81386;SDS011;70842;50.744;7.114;2024-02-28T12:55:08;25.70;;;15.98;;
81386;SDS011;70842;50.744;7.114;2024-02-28T12:57:34;19.70;;;12.50;;
81386;SDS011;70842;50.744;7.114;2024-02-28T13:00:01;22.33;;;13.52;;
81386;SDS011;70842;50.744;7.114;2024-02-28T13:02:27;20.85;;;12.82;;
81386;SDS011;70842;50.744;7.114;2024-02-28T13:04:54;20.45;;;13.85;;
81386;SDS011;70842;50.744;7.114;2024-02-28T13:07:20;21.95;;;15.25;;
81386;SDS011;70842;50.744;7.114;2024-02-28T13:09:48;20.42;;;14.23;;
81386;SDS011;70842;50.744;7.114;2024-02-28T13:12:15;20.45;;;14.05;;
81386;SDS011;70842;50.744;7.114;2024-02-28T13:14:42;19.73;;;13.73;;
81386;SDS011;70842;50.744;7.114;2024-02-28T13:17:08;19.50;;;13.45;;
81386;SDS011;70842;50.744;7.114;2024-02-28T13:19:35;19.00;;;11.40;;
81386;SDS011;70842;50.744;7.114;2024-02-28T13:22:01;18.85;;;12.10;;
81386;SDS011;70842;50.744;7.114;2024-02-28T13:24:28;18.27;;;12.63;;
81386;SDS011;70842;50.744;7.114;2024-02-28T13:26:54;18.90;;;12.15;;
81386;SDS011;70842;50.744;7.114;2024-02-28T13:29:21;15.55;;;10.77;;
81386;SDS011;70842;50.744;7.114;2024-02-28T13:31:47;18.92;;;12.75;;
81386;SDS011;70842;50.744;7.114;2024-02-28T13:34:14;17.92;;;10.38;;
81386;SDS011;70842;50.744;7.114;2024-02-28T13:36:40;14.13;;;11.80;;
81386;SDS011;70842;50.744;7.114;2024-02-28T13:39:09;17.05;;;11.15;;
81386;SDS011;70842;50.744;7.114;2024-02-28T13:41:39;15.55;;;10.40;;
81386;SDS011;70842;50.744;7.114;2024-02-28T13:44:05;15.75;;;9.40;;
81386;SDS011;70842;50.744;7.114;2024-02-28T13:46:32;14.38;;;9.40;;
81386;SDS011;70842;50.744;7.114;2024-02-28T13:49:01;12.95;;;10.25;;
81386;SDS011;70842;50.744;7.114;2024-02-28T13:51:30;14.15;;;10.20;;
81386;SDS011;70842;50.744;7.114;2024-02-28T13:53:56;14.48;;;10.35;;
81386;SDS011;70842;50.744;7.114;2024-02-28T13:56:23;13.15;;;10.27;;
81386;SDS011;70842;50.744;7.114;2024-02-28T13:58:49;14.50;;;9.60;;
81386;SDS011;70842;50.744;7.114;2024-02-28T14:01:19;13.32;;;9.02;;
81386;SDS011;70842;50.744;7.114;2024-02-28T14:03:46;14.18;;;9.75;;
81386;SDS011;70842;50.744;7.114;2024-02-28T14:06:13;13.88;;;9.75;;
81386;SDS011;70842;50.744;7.114;2024-02-28T14:08:40;14.60;;;11.60;;
81386;SDS011;70842;50.744;7.114;2024-02-28T14:11:09;15.05;;;7.95;;
81386;SDS011;70842;50.744;7.114;2024-02-28T14:13:35;12.85;;;10.68;;
81386;SDS011;70842;50.744;7.114;2024-02-28T14:16:02;11.73;;;8.80;;
81386;SDS011;70842;50.744;7.114;2024-02-28T14:18:28;14.50;;;11.63;;
81386;SDS011;70842;50.744;7.114;2024-02-28T14:20:55;13.73;;;9.75;;
81386;SDS011;70842;50.744;7.114;2024-02-28T14:23:21;14.75;;;9.93;;
81386;SDS011;70842;50.744;7.114;2024-02-28T14:25:48;12.75;;;9.20;;